Bookmark and Share
Track history (hours):
 

Frontier Kotobuki

Last reported at 2014-Apr-11 05:13 UTC. Time now 2014-Apr-24 21:57 UTC.
Position N 32°07' E 124°49'.
Warning: this ship's position is 13 days out of date.

Length 290 m; draft 10.4 m.

Type: Cargo ship. MMSI: 355036000.

NotesDate/timePositionNaut miles runAvg speedWind from/ knotsBaromVisibWave heightAir tempDewpointWater temp
2014-Apr-11 05:13N 32°07' E 124°49'1113.8
2014-Apr-11 04:26N 32°17' E 124°45'3812.8
2014-Apr-11 01:27N 32°53' E 124°28'1112.4
2014-Apr-11 00:33N 33°03' E 124°24'1512.5
2014-Apr-10 23:21N 33°17' E 124°19'2412.9
2014-Apr-10 21:30N 33°40' E 124°09'1313.3
2014-Apr-10 20:33N 33°52' E 124°04'1413.6
2014-Apr-10 19:30N 34°06' E 124°01'1313.5
2014-Apr-10 18:33N 34°18' E 123°59'1413.5
2014-Apr-10 17:33N 34°32' E 123°57'22412.2
2014-Apr-09 23:15N 38°01' E 122°19'913.2
2014-Apr-09 22:33N 38°05' E 122°08'3013.2
2014-Apr-09 20:17N 38°17' E 121°33'1013.2
2014-Apr-09 19:33N 38°21' E 121°22'  
2014-Apr-07 08:32N 38°59' E 117°46'0 0.0
2014-Apr-07 07:32N 38°59' E 117°46'0 0.0
2014-Apr-07 06:32N 38°59' E 117°46'0 0.0
2014-Apr-07 05:26N 38°59' E 117°46'0 0.0
2014-Apr-07 04:32N 38°59' E 117°46'0 0.0
2014-Apr-07 03:32N 38°59' E 117°46'0 0.0
2014-Apr-07 02:32N 38°59' E 117°46'0 0.0
2014-Apr-07 01:26N 38°59' E 117°46'0 0.0
2014-Apr-07 00:32N 38°59' E 117°46'0 0.0
2014-Apr-06 23:32N 38°59' E 117°46'0 0.0
2014-Apr-06 22:32N 38°59' E 117°46'0 0.0
2014-Apr-06 21:26N 38°59' E 117°46'0 0.0
2014-Apr-06 20:32N 38°59' E 117°46'0 0.0
2014-Apr-06 19:32N 38°59' E 117°46'0 0.0
2014-Apr-06 18:26N 38°59' E 117°46'0 0.0
2014-Apr-06 17:26N 38°59' E 117°46'0 0.0
2014-Apr-06 16:33N 38°59' E 117°46'3 3.2
2014-Apr-06 15:33N 38°58' E 117°50'1111.2
2014-Apr-06 14:33N 38°56' E 118°04'8 8.0
2014-Apr-06 13:30N 38°52' E 118°14'2 2.4
2014-Apr-06 12:33N 38°50' E 118°15'0 0.1
2014-Apr-06 09:24N 38°50' E 118°14'2 2.2
2014-Apr-06 08:29N 38°50' E 118°17'15010.7
2014-Apr-05 18:33N 38°24' E 121°25'1210.6
2014-Apr-05 17:26N 38°19' E 121°39'3311.1
2014-Apr-05 14:30N 38°04' E 122°16'1111.4
2014-Apr-05 13:33N 37°59' E 122°28'481 9.7
2014-Apr-03 12:08N 30°02' E 123°38'6 9.7
2014-Apr-03 11:29N 29°56' E 123°35'  

Dump ship's entire track history

sailing weather and tide predictions

Frontier Kotobuki — 3EXC5 — position and weather